Time;durP1;ratioP1;P1;durP2;ratioP2;P2;SDS_P1;SDS_P2;PMS_P1;PMS_P2;Temp;Humidity;BMP_temperature;BMP_pressure;BME280_temperature;BME280_humidity;BME280_pressure;Samples;Min_cycle;Max_cycle;Signal;HPM_P1;HPM_P2
2023/05/04 00:01:59;;;;;;;6.82;4.60;;;;;;;7.48;64.32;101004.31;5056888;28;20060;-57
2023/05/04 00:04:26;;;;;;;7.40;4.90;;;;;;;7.46;63.61;100998.22;5056108;28;20486;-57
2023/05/04 00:06:54;;;;;;;7.35;4.88;;;;;;;7.45;63.77;100996.53;5056744;28;20053;-57
2023/05/04 00:09:22;;;;;;;9.07;4.80;;;;;;;7.41;63.57;100992.66;5056204;28;20057;-58
2023/05/04 00:11:49;;;;;;;6.00;4.32;;;;;;;7.45;64.17;100993.78;5056523;28;20053;-58
2023/05/04 00:14:17;;;;;;;7.70;4.90;;;;;;;7.39;63.78;100983.81;5056082;28;20049;-59
2023/05/04 00:16:44;;;;;;;7.85;4.95;;;;;;;7.32;64.48;100984.94;5056436;28;20048;-58
2023/05/04 00:19:11;;;;;;;6.50;4.57;;;;;;;7.30;64.62;100981.59;5056252;28;20057;-58
2023/05/04 00:21:39;;;;;;;5.80;4.38;;;;;;;7.29;63.97;100981.91;5056341;28;20390;-58
2023/05/04 00:24:06;;;;;;;5.95;4.80;;;;;;;7.24;64.68;100979.94;5055814;28;20053;-58
2023/05/04 00:26:35;;;;;;;5.78;4.15;;;;;;;7.29;64.06;100979.13;5055947;28;20064;-57
2023/05/04 00:29:05;;;;;;;5.47;4.82;;;;;;;7.26;64.43;100980.50;5055824;28;20053;-59
2023/05/04 00:31:33;;;;;;;5.75;4.28;;;;;;;7.24;64.45;100977.19;5056432;28;20059;-58
2023/05/04 00:34:00;;;;;;;7.80;4.65;;;;;;;7.17;64.52;100975.81;5056208;28;20053;-58
2023/05/04 00:36:27;;;;;;;7.78;4.50;;;;;;;7.10;64.71;100970.56;5054322;28;20057;-58
2023/05/04 00:38:55;;;;;;;5.72;4.28;;;;;;;7.08;64.74;100978.34;5047909;28;20050;-58
2023/05/04 00:41:22;;;;;;;5.25;4.43;;;;;;;7.08;64.88;100973.63;5035897;28;20053;-58
2023/05/04 00:43:51;;;;;;;5.10;4.20;;;;;;;7.13;64.14;100970.00;5035851;28;20060;-58
2023/05/04 00:46:19;;;;;;;8.40;4.63;;;;;;;7.12;64.52;100971.13;5035852;28;20058;-58
2023/05/04 00:48:48;;;;;;;5.75;4.50;;;;;;;7.11;64.06;100970.28;5035724;28;20053;-58
2023/05/04 00:51:19;;;;;;;7.22;4.15;;;;;;;7.09;64.28;100966.13;5035963;28;20421;-58
2023/05/04 00:53:48;;;;;;;6.35;4.50;;;;;;;7.05;64.26;100963.06;5035518;28;20057;-58
2023/05/04 00:56:17;;;;;;;8.30;4.45;;;;;;;7.04;64.54;100955.06;5035576;28;20072;-57
2023/05/04 00:58:45;;;;;;;6.15;4.45;;;;;;;7.02;64.66;100957.28;5035702;28;20057;-58
2023/05/04 01:01:14;;;;;;;6.97;4.32;;;;;;;6.98;64.96;100958.94;5035043;28;20475;-58
2023/05/04 01:03:41;;;;;;;7.13;4.20;;;;;;;7.00;64.79;100953.97;5047888;28;20052;-58
2023/05/04 01:06:24;;;;;;;8.38;4.40;;;;;;;7.02;65.07;100948.97;5055356;28;20072;-57
2023/05/04 01:08:59;;;;;;;7.28;4.32;;;;;;;6.95;65.47;100943.72;5055239;28;20052;-57
2023/05/04 01:11:32;;;;;;;7.07;4.78;;;;;;;6.86;65.11;100946.19;5055534;28;20056;-57
2023/05/04 01:14:01;;;;;;;6.82;5.25;;;;;;;6.85;65.27;100946.50;5055042;28;20391;-57
2023/05/04 01:16:30;;;;;;;5.97;4.38;;;;;;;6.85;65.32;100947.31;5055352;28;20072;-58
2023/05/04 01:18:57;;;;;;;10.02;4.55;;;;;;;6.88;65.08;100943.97;5055271;28;20059;-58
2023/05/04 01:21:29;;;;;;;7.97;4.88;;;;;;;6.84;64.92;100944.81;5055178;28;20053;-58
2023/05/04 01:23:57;;;;;;;6.78;4.15;;;;;;;6.80;65.37;100940.94;5055400;28;20063;-58
2023/05/04 01:26:32;;;;;;;6.82;4.57;;;;;;;6.77;65.23;100938.75;5054916;28;20045;-58
2023/05/04 01:29:11;;;;;;;7.72;4.63;;;;;;;6.72;65.40;100936.81;5055011;28;20072;-58
2023/05/04 01:31:43;;;;;;;8.20;5.00;;;;;;;6.70;65.68;100941.81;5055324;28;20406;-58
2023/05/04 01:34:11;;;;;;;5.65;4.60;;;;;;;6.70;65.60;100945.41;5054548;28;20053;-58
2023/05/04 01:36:41;;;;;;;5.70;4.85;;;;;;;6.74;65.78;100936.53;5054984;28;20057;-58
2023/05/04 01:39:08;;;;;;;7.88;4.95;;;;;;;6.69;65.91;100931.81;5054885;28;20494;-58
2023/05/04 01:41:36;;;;;;;6.78;4.68;;;;;;;6.71;65.97;100935.16;5055003;28;20075;-59
2023/05/04 01:44:04;;;;;;;7.35;5.22;;;;;;;6.66;66.14;100938.75;5054805;28;20136;-57
2023/05/04 01:46:31;;;;;;;5.80;4.50;;;;;;;6.67;66.08;100939.56;5054668;28;20488;-57
2023/05/04 01:49:01;;;;;;;8.07;4.57;;;;;;;6.65;65.94;100930.72;5054662;28;20409;-58
2023/05/04 01:51:28;;;;;;;7.80;4.60;;;;;;;6.63;65.97;100936.53;5054686;28;20052;-58
2023/05/04 01:53:57;;;;;;;10.05;4.38;;;;;;;6.63;66.19;100932.94;5054313;28;20060;-58
2023/05/04 01:56:24;;;;;;;6.25;4.35;;;;;;;6.60;65.86;100934.31;5054791;28;20051;-57
2023/05/04 01:58:52;;;;;;;8.38;4.90;;;;;;;6.65;66.09;100933.47;5054114;28;20076;-58
2023/05/04 02:01:22;;;;;;;9.07;4.40;;;;;;;6.64;65.80;100935.44;5054330;28;20064;-58
2023/05/04 02:03:49;;;;;;;6.60;4.20;;;;;;;6.65;65.83;100936.25;5054222;28;20517;-57
2023/05/04 02:06:16;;;;;;;5.57;4.55;;;;;;;6.65;65.92;100936.25;5054416;28;20049;-58
2023/05/04 02:08:46;;;;;;;7.70;4.78;;;;;;;6.64;65.89;100934.59;5054205;28;20049;-58
2023/05/04 02:11:15;;;;;;;6.22;4.10;;;;;;;6.63;65.68;100928.22;5053816;28;20049;-58
2023/05/04 02:13:42;;;;;;;5.65;4.05;;;;;;;6.66;65.53;100935.16;5053348;28;20064;-58
2023/05/04 02:16:09;;;;;;;4.93;4.20;;;;;;;6.65;65.57;100936.25;5054112;28;20493;-58
2023/05/04 02:18:39;;;;;;;5.38;3.90;;;;;;;6.59;65.76;100937.34;5053756;28;20474;-58
2023/05/04 02:21:06;;;;;;;6.25;4.53;;;;;;;6.59;65.86;100926.28;5054098;28;20064;-58
2023/05/04 02:23:34;;;;;;;6.45;4.25;;;;;;;6.52;65.86;100920.22;5053680;28;20057;-58
2023/05/04 02:26:01;;;;;;;7.03;4.00;;;;;;;6.47;65.74;100927.41;5053717;28;20049;-58
2023/05/04 02:28:32;;;;;;;6.85;4.38;;;;;;;6.42;65.99;100927.38;5053888;28;20079;-58
2023/05/04 02:30:59;;;;;;;6.32;4.22;;;;;;;6.39;66.02;100921.59;5053749;28;20057;-57
2023/05/04 02:33:27;;;;;;;5.90;4.10;;;;;;;6.41;65.99;100922.97;5053530;28;20049;-58
2023/05/04 02:35:56;;;;;;;5.95;3.78;;;;;;;6.48;65.73;100917.16;5053710;28;20048;-58
2023/05/04 02:38:24;;;;;;;5.93;3.80;;;;;;;6.47;65.86;100910.78;5053119;28;20064;-58
2023/05/04 02:40:51;;;;;;;5.40;3.65;;;;;;;6.48;66.15;100908.84;5053746;28;20080;-58
2023/05/04 02:43:18;;;;;;;6.32;4.60;;;;;;;6.50;65.48;100915.75;5053619;28;20414;-58
2023/05/04 02:45:47;;;;;;;5.53;3.72;;;;;;;6.52;65.92;100909.13;5053538;28;20049;-58
2023/05/04 02:48:14;;;;;;;5.65;4.38;;;;;;;6.50;65.97;100915.75;5053566;28;20075;-58
2023/05/04 02:50:41;;;;;;;5.72;3.78;;;;;;;6.47;65.93;100913.56;5053169;28;20060;-58
2023/05/04 02:53:08;;;;;;;5.68;3.72;;;;;;;6.44;66.20;100927.09;5053994;28;20060;-58
2023/05/04 02:55:36;;;;;;;6.35;3.88;;;;;;;6.46;66.33;100922.94;5053182;28;20056;-57
2023/05/04 02:58:03;;;;;;;6.82;4.30;;;;;;;6.42;66.30;100923.78;5053391;28;20052;-57
2023/05/04 03:00:31;;;;;;;7.93;4.30;;;;;;;6.41;66.15;100925.72;5053280;28;20418;-57
2023/05/04 03:03:00;;;;;;;9.20;4.50;;;;;;;6.38;66.11;100917.97;5053385;28;20493;-57
2023/05/04 03:05:27;;;;;;;6.72;4.47;;;;;;;6.35;66.34;100921.28;5052789;28;20049;-57
2023/05/04 03:07:55;;;;;;;7.80;4.03;;;;;;;6.32;66.44;100921.84;5053147;28;20057;-58
2023/05/04 03:10:22;;;;;;;5.93;3.90;;;;;;;6.34;66.18;100916.03;5052739;28;20048;-57
2023/05/04 03:12:49;;;;;;;5.32;3.70;;;;;;;6.29;66.35;100911.31;5052788;28;20520;-58
2023/05/04 03:15:17;;;;;;;6.68;4.00;;;;;;;6.30;66.26;100913.00;5052724;28;20060;-57
2023/05/04 03:17:44;;;;;;;6.88;3.67;;;;;;;6.30;66.20;100908.28;5053104;28;20064;-58
2023/05/04 03:20:14;;;;;;;8.48;4.30;;;;;;;6.25;66.35;100905.50;5052686;28;20065;-57
2023/05/04 03:22:41;;;;;;;6.55;3.85;;;;;;;6.18;66.28;100910.47;5052981;28;20085;-58
2023/05/04 03:25:09;;;;;;;5.63;4.07;;;;;;;6.16;66.31;100909.09;5052115;28;20459;-57
2023/05/04 03:27:36;;;;;;;6.35;3.92;;;;;;;6.20;66.48;100907.44;5053007;28;20045;-58
2023/05/04 03:30:08;;;;;;;5.55;3.80;;;;;;;6.21;66.24;100900.81;5052660;28;20075;-57
2023/05/04 03:32:35;;;;;;;4.80;3.60;;;;;;;6.18;66.32;100898.59;5052900;28;20061;-59
2023/05/04 03:35:03;;;;;;;7.03;3.80;;;;;;;6.14;67.06;100903.00;5052870;28;20383;-57
2023/05/04 03:37:31;;;;;;;6.85;4.15;;;;;;;6.12;66.83;100900.50;5052502;28;20056;-58
2023/05/04 03:39:59;;;;;;;6.00;3.63;;;;;;;6.04;66.82;100892.75;5052361;28;20064;-57
2023/05/04 03:42:26;;;;;;;4.95;3.33;;;;;;;6.13;66.56;100895.81;5052706;28;20053;-57
2023/05/04 03:44:53;;;;;;;4.97;3.63;;;;;;;6.09;67.10;100895.56;5052445;28;20053;-58
2023/05/04 03:47:20;;;;;;;5.78;4.13;;;;;;;6.07;66.55;100895.00;5052510;28;20060;-58
2023/05/04 03:49:49;;;;;;;7.25;3.92;;;;;;;6.04;66.71;100893.56;5052847;28;20056;-58
2023/05/04 03:52:16;;;;;;;5.63;3.50;;;;;;;6.07;66.57;100895.81;5052698;28;20478;-57
2023/05/04 03:54:45;;;;;;;6.80;3.85;;;;;;;6.09;66.63;100892.78;5052718;28;20379;-58
2023/05/04 03:57:12;;;;;;;7.90;3.90;;;;;;;6.05;66.60;100889.72;5052214;28;20053;-57
2023/05/04 03:59:39;;;;;;;8.18;4.55;;;;;;;6.07;66.66;100886.69;5051664;28;20064;-58
2023/05/04 04:02:06;;;;;;;6.43;4.68;;;;;;;6.08;66.95;100878.09;5052510;28;20060;-58
2023/05/04 04:04:34;;;;;;;6.22;3.90;;;;;;;6.12;66.76;100881.16;5052539;28;20478;-57
2023/05/04 04:07:01;;;;;;;6.22;4.00;;;;;;;6.10;66.94;100877.84;5052767;28;20470;-57
2023/05/04 04:09:28;;;;;;;6.68;4.30;;;;;;;6.06;66.96;100876.72;5052361;28;20064;-57
2023/05/04 04:11:57;;;;;;;9.85;4.85;;;;;;;6.10;66.98;100878.66;5052578;28;20055;-58
2023/05/04 04:14:27;;;;;;;6.05;4.32;;;;;;;6.10;66.51;100880.59;5052150;28;20506;-57
2023/05/04 04:16:56;;;;;;;7.47;4.97;;;;;;;6.13;67.49;100877.28;5052517;28;20053;-57
2023/05/04 04:19:26;;;;;;;7.00;4.72;;;;;;;6.14;66.75;100878.13;5052326;28;20056;-58
2023/05/04 04:21:53;;;;;;;7.65;4.60;;;;;;;6.19;66.95;100881.72;5052663;28;20053;-57
2023/05/04 04:24:24;;;;;;;6.80;4.70;;;;;;;6.18;67.13;100876.47;5052226;28;20045;-57
2023/05/04 04:26:53;;;;;;;;;;;;;;;6.17;67.28;100872.03;5053132;28;20045;-57
2023/05/04 04:29:22;;;;;;;8.10;5.00;;;;;;;6.21;67.11;100873.97;5052107;28;19921;-58
2023/05/04 04:31:49;;;;;;;7.15;4.70;;;;;;;6.26;67.03;100868.44;5052540;28;20056;-58
2023/05/04 04:34:16;;;;;;;6.90;4.60;;;;;;;6.32;66.93;100872.06;5052015;28;20053;-57
2023/05/04 04:36:44;;;;;;;5.43;3.90;;;;;;;6.40;66.52;100873.44;5053745;28;20462;-57
2023/05/04 04:39:11;;;;;;;8.93;5.32;;;;;;;6.44;66.67;100880.88;5056048;28;20049;-57
2023/05/04 04:41:38;;;;;;;6.93;4.68;;;;;;;6.46;67.00;100875.09;5056019;28;20048;-58
2023/05/04 04:44:09;;;;;;;6.28;4.25;;;;;;;6.50;66.76;100887.25;5055609;28;20053;-58
2023/05/04 04:46:37;;;;;;;6.63;4.25;;;;;;;6.59;66.44;100887.53;5056129;28;20056;-58
2023/05/04 04:49:05;;;;;;;6.60;4.47;;;;;;;6.67;66.56;100889.75;5055878;28;20064;-58
2023/05/04 04:51:32;;;;;;;5.65;3.80;;;;;;;6.78;65.96;100893.34;5055760;28;20406;-58
2023/05/04 04:53:59;;;;;;;6.75;4.00;;;;;;;6.91;66.02;100888.06;5055712;28;20057;-58
2023/05/04 04:56:27;;;;;;;7.78;4.57;;;;;;;6.97;65.44;100891.66;5055837;28;20048;-58
2023/05/04 04:58:54;;;;;;;9.07;4.60;;;;;;;7.04;65.27;100889.41;5055851;28;20053;-58
2023/05/04 05:01:21;;;;;;;6.75;4.72;;;;;;;7.09;64.70;100888.56;5055112;28;20052;-58
2023/05/04 05:03:50;;;;;;;8.32;4.78;;;;;;;7.16;65.41;100885.50;5055451;28;20410;-58
2023/05/04 05:06:17;;;;;;;8.52;4.97;;;;;;;7.27;64.91;100885.19;5055426;28;20049;-58
2023/05/04 05:08:45;;;;;;;7.45;5.13;;;;;;;7.30;64.89;100886.56;5054995;28;20057;-58
2023/05/04 05:11:12;;;;;;;7.47;4.97;;;;;;;7.37;64.62;100881.56;5055183;28;20045;-58
2023/05/04 05:13:40;;;;;;;11.55;6.20;;;;;;;7.41;64.65;100881.81;5054798;28;20088;-58
2023/05/04 05:16:07;;;;;;;9.32;5.47;;;;;;;7.44;64.70;100879.31;5055457;28;20398;-58
2023/05/04 05:18:34;;;;;;;11.23;5.32;;;;;;;7.56;65.23;100873.47;5055326;28;20402;-58
2023/05/04 05:21:04;;;;;;;8.80;5.55;;;;;;;7.65;64.21;100873.69;5055200;28;20052;-57
2023/05/04 05:23:31;;;;;;;7.75;5.97;;;;;;;7.69;64.37;100866.47;5054845;28;20053;-58
2023/05/04 05:26:01;;;;;;;9.00;5.50;;;;;;;7.76;64.80;100863.38;5055032;28;20049;-58
2023/05/04 05:28:29;;;;;;;11.15;6.57;;;;;;;7.75;64.81;100872.78;5054906;28;20051;-58
2023/05/04 05:30:56;;;;;;;12.02;7.07;;;;;;;7.89;63.93;100869.09;5054621;28;20071;-57
2023/05/04 05:33:23;;;;;;;11.95;6.78;;;;;;;8.02;64.79;100875.97;5054506;28;20055;-58
2023/05/04 05:35:57;;;;;;;10.43;7.00;;;;;;;8.13;63.79;100874.78;5054310;28;20075;-58
2023/05/04 05:38:25;;;;;;;8.85;7.05;;;;;;;8.30;63.31;100876.31;5054496;28;20045;-58
2023/05/04 05:40:53;;;;;;;10.63;6.80;;;;;;;8.40;64.20;100884.56;5054633;28;20060;-58
2023/05/04 05:43:20;;;;;;;8.52;6.75;;;;;;;8.51;62.64;100880.63;5053983;28;20072;-58
2023/05/04 05:45:47;;;;;;;11.65;7.03;;;;;;;8.62;61.91;100872.19;5054420;28;20057;-58
2023/05/04 05:48:15;;;;;;;11.15;7.05;;;;;;;8.74;63.01;100870.69;5053514;28;20410;-58
2023/05/04 05:50:42;;;;;;;10.85;6.88;;;;;;;8.89;61.98;100880.81;5054081;28;20053;-57
2023/05/04 05:53:09;;;;;;;9.88;6.35;;;;;;;8.93;61.18;100872.75;5054298;28;20414;-57
2023/05/04 05:55:38;;;;;;;10.35;6.55;;;;;;;9.11;62.62;100869.22;5054160;28;20395;-57
2023/05/04 05:58:05;;;;;;;11.50;6.68;;;;;;;9.27;61.62;100869.84;5054633;28;20379;-57
2023/05/04 06:00:32;;;;;;;9.35;6.85;;;;;;;9.41;61.81;100869.13;5054306;28;20512;-57
2023/05/04 06:03:00;;;;;;;11.02;6.43;;;;;;;9.55;60.00;100873.69;5053718;28;20053;-58
2023/05/04 06:05:27;;;;;;;12.93;7.30;;;;;;;9.71;59.48;100857.63;5054149;28;20064;-57
2023/05/04 06:07:55;;;;;;;11.50;6.95;;;;;;;9.90;60.46;100856.81;5054013;28;20479;-57
2023/05/04 06:10:22;;;;;;;10.43;6.25;;;;;;;9.99;58.86;100849.44;5053914;28;20056;-57
2023/05/04 06:12:51;;;;;;;10.23;5.75;;;;;;;10.27;59.87;100847.63;5054114;28;20482;-57
2023/05/04 06:15:19;;;;;;;11.45;6.63;;;;;;;10.52;59.32;100837.19;5053425;28;20064;-58
2023/05/04 06:17:47;;;;;;;10.93;7.15;;;;;;;10.75;58.05;100841.81;5054064;28;20045;-59
2023/05/04 06:20:15;;;;;;;11.48;6.65;;;;;;;11.00;58.63;100827.69;5053662;28;20429;-58
2023/05/04 06:22:42;;;;;;;10.52;6.55;;;;;;;11.28;58.13;100826.56;5053810;28;20053;-59
2023/05/04 06:25:10;;;;;;;10.55;6.85;;;;;;;11.50;57.93;100820.22;5053681;28;20063;-59
2023/05/04 06:27:37;;;;;;;12.10;7.00;;;;;;;11.69;58.00;100822.88;5053290;28;20049;-59
2023/05/04 06:30:07;;;;;;;11.90;6.50;;;;;;;12.02;58.42;100822.72;5053599;28;20065;-59
2023/05/04 06:32:34;;;;;;;9.30;6.53;;;;;;;12.27;58.23;100829.66;5053525;28;20063;-59
2023/05/04 06:35:02;;;;;;;11.13;7.53;;;;;;;12.49;58.23;100819.63;5053258;28;20482;-58
2023/05/04 06:37:29;;;;;;;10.85;6.70;;;;;;;12.85;57.49;100822.31;5053136;28;20049;-58
2023/05/04 06:39:56;;;;;;;11.43;7.22;;;;;;;13.12;57.03;100814.84;5053575;28;20059;-58
2023/05/04 06:42:24;;;;;;;9.25;6.75;;;;;;;13.40;57.04;100802.28;5053346;28;20405;-59
2023/05/04 06:45:02;;;;;;;9.55;6.13;;;;;;;13.62;56.16;100810.91;5058094;28;20057;-58
2023/05/04 06:47:31;;;;;;;11.98;5.88;;;;;;;13.87;55.68;100800.88;5053351;28;20049;-57
2023/05/04 06:49:58;;;;;;;8.02;5.10;;;;;;;14.10;55.19;100795.94;5053131;28;20057;-57
2023/05/04 06:52:28;;;;;;;9.63;6.03;;;;;;;14.30;54.28;100800.88;5053259;28;20049;-58
2023/05/04 06:54:55;;;;;;;7.13;5.20;;;;;;;14.53;54.06;100809.91;5052849;28;20056;-58
2023/05/04 06:57:22;;;;;;;8.35;5.28;;;;;;;14.75;53.74;100796.84;5053349;28;20406;-58
2023/05/04 06:59:51;;;;;;;8.10;5.65;;;;;;;14.99;52.54;100802.69;5052859;28;20060;-58
2023/05/04 07:02:18;;;;;;;9.45;5.25;;;;;;;15.18;51.08;100795.81;5053361;28;20458;-58
2023/05/04 07:04:47;;;;;;;8.75;5.65;;;;;;;15.36;52.01;100791.78;5053144;28;20063;-58
2023/05/04 07:07:14;;;;;;;6.25;4.90;;;;;;;15.57;51.51;100802.22;5053057;28;20068;-58
2023/05/04 07:09:42;;;;;;;5.45;4.47;;;;;;;15.80;50.10;100797.13;5052644;28;20053;-58
2023/05/04 07:12:09;;;;;;;6.97;4.85;;;;;;;15.89;49.89;100799.88;5053205;28;20063;-59
2023/05/04 07:14:37;;;;;;;7.25;5.15;;;;;;;15.99;49.57;100791.84;5052514;28;20418;-59
2023/05/04 07:17:04;;;;;;;8.02;5.20;;;;;;;16.21;49.69;100792.63;5053249;28;20049;-58
2023/05/04 07:19:31;;;;;;;8.18;5.72;;;;;;;16.63;48.49;100798.16;5052743;28;20048;-59
2023/05/04 07:22:00;;;;;;;7.93;5.93;;;;;;;17.13;47.87;100793.47;5053124;28;20057;-59
2023/05/04 07:24:29;;;;;;;8.20;5.23;;;;;;;17.77;46.45;100781.47;5052691;28;20053;-59
2023/05/04 07:26:56;;;;;;;9.30;5.47;;;;;;;18.45;44.51;100780.63;5052938;28;20064;-59
2023/05/04 07:29:24;;;;;;;9.35;5.68;;;;;;;19.12;43.26;100779.19;5053175;28;20049;-59
2023/05/04 07:31:51;;;;;;;8.35;4.40;;;;;;;19.86;42.23;100762.34;5053200;28;20398;-59
2023/05/04 07:34:18;;;;;;;8.48;4.57;;;;;;;20.86;40.41;100769.19;5052862;28;20049;-59
2023/05/04 07:36:45;;;;;;;4.93;3.67;;;;;;;21.69;37.48;100769.34;5052583;28;20049;-57
2023/05/04 07:39:16;;;;;;;6.22;2.90;;;;;;;22.46;34.10;100769.91;5052531;28;20059;-57
2023/05/04 07:41:44;;;;;;;3.80;2.60;;;;;;;22.95;32.20;100767.13;5052774;28;20073;-57
2023/05/04 07:44:11;;;;;;;5.60;2.70;;;;;;;23.26;30.69;100760.13;5052693;28;20056;-60
2023/05/04 07:46:38;;;;;;;5.13;2.70;;;;;;;23.85;29.86;100757.28;5053075;28;20053;-57
2023/05/04 07:49:06;;;;;;;3.47;2.75;;;;;;;24.48;28.37;100755.06;5052579;28;20056;-57
2023/05/04 07:51:33;;;;;;;3.63;3.25;;;;;;;25.28;27.97;100763.34;5052774;28;20406;-57
2023/05/04 07:54:00;;;;;;;5.35;3.47;;;;;;;25.57;28.00;100757.59;5052179;28;20053;-58
2023/05/04 07:56:29;;;;;;;4.15;3.13;;;;;;;26.43;27.16;100745.84;5052514;28;20060;-57
2023/05/04 07:58:56;;;;;;;4.65;2.80;;;;;;;26.63;25.48;100753.94;5052590;28;20387;-57
2023/05/04 08:01:25;;;;;;;3.00;2.70;;;;;;;26.68;25.51;100745.72;5052574;28;20060;-57
2023/05/04 08:03:52;;;;;;;4.40;2.70;;;;;;;26.12;25.08;100757.03;5052467;28;20049;-57
2023/05/04 08:06:19;;;;;;;3.33;2.78;;;;;;;26.40;25.49;100746.69;5052776;28;20049;-57
2023/05/04 08:08:48;;;;;;;3.50;2.67;;;;;;;27.05;24.47;100741.34;5052536;28;20049;-58
2023/05/04 08:11:16;;;;;;;;;;;;;;;27.85;24.31;100736.47;5053348;28;20052;-58
2023/05/04 08:13:46;;;;;;;4.70;3.08;;;;;;;27.20;24.25;100747.75;5055964;28;19920;-59
2023/05/04 08:16:14;;;;;;;3.80;2.88;;;;;;;26.95;24.29;100742.25;5056615;28;20063;-58
2023/05/04 08:18:42;;;;;;;4.93;2.88;;;;;;;27.39;23.97;100743.53;5056619;28;20059;-59
2023/05/04 08:21:09;;;;;;;5.63;2.75;;;;;;;27.81;23.40;100735.72;5056332;28;20064;-58
2023/05/04 08:23:36;;;;;;;4.68;2.78;;;;;;;28.27;23.07;100737.19;5056316;28;20080;-59
2023/05/04 08:26:04;;;;;;;8.20;2.58;;;;;;;28.36;22.46;100735.84;5056066;28;20076;-59
2023/05/04 08:28:36;;;;;;;4.75;2.45;;;;;;;28.58;22.47;100736.38;5055973;28;20053;-59
2023/05/04 08:31:05;;;;;;;4.22;2.85;;;;;;;29.31;21.52;100729.03;5056225;28;20057;-58
2023/05/04 08:33:32;;;;;;;3.88;2.65;;;;;;;30.02;21.34;100720.28;5056080;28;20049;-58
2023/05/04 08:36:02;;;;;;;5.70;2.85;;;;;;;30.51;20.48;100731.94;5056140;28;20413;-59
2023/05/04 08:38:30;;;;;;;4.85;3.08;;;;;;;31.00;19.36;100722.59;5055468;28;20060;-59
2023/05/04 08:40:57;;;;;;;4.88;3.00;;;;;;;31.81;19.88;100726.56;5055713;28;20053;-57
2023/05/04 08:43:28;;;;;;;5.22;2.88;;;;;;;31.71;18.63;100709.16;5055451;28;20053;-59
2023/05/04 08:45:55;;;;;;;6.05;3.13;;;;;;;31.89;18.76;100705.72;5055662;28;20056;-57
2023/05/04 08:48:24;;;;;;;5.05;3.00;;;;;;;32.05;19.28;100707.78;5055654;28;20045;-59
2023/05/04 08:50:51;;;;;;;4.65;2.78;;;;;;;32.90;18.11;100705.50;5055463;28;20060;-59
2023/05/04 08:53:20;;;;;;;4.55;2.75;;;;;;;32.96;18.67;100700.75;5055423;28;20049;-59
2023/05/04 08:55:54;;;;;;;3.85;2.90;;;;;;;33.04;17.56;100698.44;5055458;28;20053;-59
2023/05/04 08:58:24;;;;;;;6.90;3.20;;;;;;;32.73;18.37;100688.31;5055738;28;20057;-57
2023/05/04 09:00:52;;;;;;;6.32;3.42;;;;;;;32.07;18.55;100695.78;5055203;28;20509;-57
2023/05/04 09:03:20;;;;;;;5.70;2.87;;;;;;;32.32;18.76;100695.81;5055287;28;20056;-57
2023/05/04 09:05:51;;;;;;;5.13;3.22;;;;;;;32.94;18.42;100691.75;5054925;28;20482;-58
2023/05/04 09:08:19;;;;;;;4.30;2.95;;;;;;;33.35;17.60;100684.16;5055014;28;20045;-58
2023/05/04 09:10:47;;;;;;;5.85;3.03;;;;;;;33.48;18.16;100678.34;5054935;28;20059;-57
2023/05/04 09:13:15;;;;;;;4.50;2.77;;;;;;;33.60;17.64;100688.19;5055108;28;20059;-57
2023/05/04 09:15:42;;;;;;;6.00;2.97;;;;;;;33.55;17.65;100686.72;5055097;28;20049;-57
2023/05/04 09:18:09;;;;;;;5.38;2.60;;;;;;;33.77;17.34;100675.22;5055202;28;20398;-57
2023/05/04 09:20:46;;;;;;;5.03;2.90;;;;;;;33.51;18.01;100674.50;5054874;28;20049;-58
2023/05/04 09:23:16;;;;;;;5.20;3.10;;;;;;;33.81;16.98;100678.78;5053560;28;20060;-57
2023/05/04 09:25:48;;;;;;;3.80;3.13;;;;;;;34.07;17.19;100676.50;5055186;28;20056;-57
2023/05/04 09:28:16;;;;;;;3.80;2.85;;;;;;;35.05;16.28;100670.47;5054776;28;20056;-57
2023/05/04 09:30:44;;;;;;;3.80;2.70;;;;;;;36.05;15.33;100659.34;5054968;28;20056;-58
2023/05/04 09:33:11;;;;;;;4.07;3.05;;;;;;;35.37;15.85;100669.09;5054904;28;20057;-58
2023/05/04 09:35:40;;;;;;;4.03;3.10;;;;;;;35.40;16.71;100668.09;5054703;28;20049;-58
2023/05/04 09:38:08;;;;;;;4.43;2.83;;;;;;;35.73;16.17;100670.38;5054602;28;20057;-58
2023/05/04 09:40:39;;;;;;;4.18;2.35;;;;;;;36.46;15.58;100663.56;5054624;28;20049;-58
2023/05/04 09:43:07;;;;;;;3.85;2.97;;;;;;;36.77;15.47;100666.16;5055048;28;20052;-58
2023/05/04 09:45:41;;;;;;;8.38;2.90;;;;;;;36.87;14.76;100654.47;5054771;28;20478;-58
2023/05/04 09:48:17;;;;;;;3.53;2.47;;;;;;;36.74;15.62;100657.63;5054995;28;20057;-58
2023/05/04 09:50:51;;;;;;;3.65;2.63;;;;;;;36.88;14.28;100659.81;5054732;28;20045;-58
2023/05/04 09:53:21;;;;;;;6.30;3.15;;;;;;;36.61;14.96;100659.94;5054274;28;20410;-58
2023/05/04 09:56:00;;;;;;;4.90;2.50;;;;;;;37.66;14.91;100641.63;5054505;28;20398;-58
2023/05/04 09:58:29;;;;;;;3.55;2.40;;;;;;;38.69;14.19;100646.53;5054286;28;20072;-58
2023/05/04 10:00:57;;;;;;;3.72;2.80;;;;;;;39.09;13.46;100644.97;5054045;28;20049;-58
2023/05/04 10:03:26;;;;;;;3.10;2.50;;;;;;;38.25;14.26;100637.91;5053894;28;20049;-58
2023/05/04 10:05:54;;;;;;;3.83;2.65;;;;;;;38.55;13.49;100632.81;5054019;28;20060;-58
2023/05/04 10:08:22;;;;;;;4.68;2.70;;;;;;;39.01;13.24;100620.50;5054211;28;20057;-58
2023/05/04 10:10:50;;;;;;;;;;;;;;;38.06;13.72;100616.97;5054658;28;20049;-57
2023/05/04 10:13:18;;;;;;;4.05;3.05;;;;;;;39.88;12.82;100616.72;5053808;28;19920;-58
2023/05/04 10:15:59;;;;;;;3.42;2.40;;;;;;;40.09;12.04;100613.69;5053606;28;20422;-58
2023/05/04 10:18:41;;;;;;;4.05;2.40;;;;;;;39.16;12.50;100620.41;5053633;28;20053;-58
2023/05/04 10:21:27;;;;;;;4.57;2.30;;;;;;;38.61;12.53;100616.25;5053828;28;20068;-58
2023/05/04 10:24:30;;;;;;;5.75;2.92;;;;;;;39.39;13.08;100606.91;5053979;28;20052;-58
2023/05/04 10:27:09;;;;;;;3.13;2.50;;;;;;;39.68;13.07;100608.00;5053982;28;20049;-58
2023/05/04 10:29:46;;;;;;;2.70;2.22;;;;;;;39.84;12.32;100597.81;5053873;28;20053;-58
2023/05/04 10:32:17;;;;;;;6.13;3.95;;;;;;;40.43;12.42;100594.34;5053993;28;20410;-58
2023/05/04 10:34:45;;;;;;;3.70;2.65;;;;;;;41.44;11.56;100590.25;5053630;28;20482;-58
2023/05/04 10:37:20;;;;;;;4.10;2.38;;;;;;;42.55;11.45;100584.94;5053830;28;20111;-58
2023/05/04 10:39:52;;;;;;;5.72;2.75;;;;;;;42.77;10.60;100590.69;5053655;28;20048;-58
2023/05/04 10:42:19;;;;;;;4.88;2.40;;;;;;;42.72;11.04;100582.75;5053677;28;20060;-58
2023/05/04 10:44:53;;;;;;;4.03;2.10;;;;;;;42.55;10.30;100568.16;5053546;28;20049;-58
2023/05/04 10:47:29;;;;;;;2.58;2.30;;;;;;;42.46;10.56;100567.66;5053153;28;20061;-58
2023/05/04 10:50:04;;;;;;;3.30;2.30;;;;;;;42.47;10.47;100572.19;5052986;28;20057;-58
2023/05/04 10:52:47;;;;;;;3.72;2.00;;;;;;;41.91;10.47;100556.25;5053378;28;20057;-58
2023/05/04 10:55:14;;;;;;;3.55;2.10;;;;;;;43.23;9.84;100553.19;5049871;28;20059;-57
2023/05/04 10:57:51;;;;;;;3.25;1.75;;;;;;;44.75;9.84;100543.00;5053189;28;20057;-58
2023/05/04 11:00:21;;;;;;;3.95;2.53;;;;;;;44.73;8.94;100545.72;5053180;28;20056;-58
2023/05/04 11:02:49;;;;;;;4.47;2.63;;;;;;;44.88;9.28;100545.25;5052981;28;20049;-58
2023/05/04 11:05:18;;;;;;;3.75;2.03;;;;;;;44.74;9.08;100531.81;5053222;28;20060;-58
2023/05/04 11:07:51;;;;;;;2.45;1.90;;;;;;;44.20;9.35;100526.81;5053019;28;20064;-58
2023/05/04 11:10:24;;;;;;;2.90;1.85;;;;;;;44.33;9.17;100530.69;5052998;28;20394;-58
2023/05/04 11:12:59;;;;;;;2.65;2.13;;;;;;;43.85;9.68;100532.22;5052593;28;20064;-58
2023/05/04 11:15:29;;;;;;;3.70;2.17;;;;;;;44.60;9.06;100518.34;5052577;28;20052;-58
2023/05/04 11:17:59;;;;;;;3.28;2.00;;;;;;;44.69;9.08;100515.84;5052788;28;20063;-58
2023/05/04 11:20:27;;;;;;;2.78;1.80;;;;;;;44.15;9.28;100511.66;5052578;28;20061;-58
2023/05/04 11:22:55;;;;;;;2.63;1.95;;;;;;;44.32;8.81;100508.53;5052937;28;20057;-58
2023/05/04 11:25:27;;;;;;;4.03;2.13;;;;;;;44.71;8.78;100512.31;5052582;28;20053;-58
2023/05/04 11:27:54;;;;;;;3.38;1.80;;;;;;;45.84;8.57;100499.63;5052863;28;20052;-58
2023/05/04 11:30:29;;;;;;;4.22;2.05;;;;;;;45.27;8.23;100499.00;5052668;28;20045;-57
2023/05/04 11:32:59;;;;;;;2.55;1.98;;;;;;;43.49;9.13;100511.72;5052410;28;20059;-58
2023/05/04 11:35:26;;;;;;;4.88;1.90;;;;;;;43.75;9.16;100508.31;5052376;28;20059;-57
2023/05/04 11:37:54;;;;;;;3.72;2.30;;;;;;;44.07;8.89;100501.88;5052752;28;20049;-58